sensor_id;sensor_type;location;lat;lon;timestamp;P1;durP1;ratioP1;P2;durP2;ratioP2
6203;SDS011;3135;42.602;23.468;2023-03-23T00:01:54;11.53;;;6.00;;
6203;SDS011;3135;42.602;23.468;2023-03-23T00:04:20;11.82;;;6.72;;
6203;SDS011;3135;42.602;23.468;2023-03-23T00:06:46;12.70;;;6.38;;
6203;SDS011;3135;42.602;23.468;2023-03-23T00:09:13;15.35;;;7.72;;
6203;SDS011;3135;42.602;23.468;2023-03-23T00:11:40;23.40;;;10.68;;
6203;SDS011;3135;42.602;23.468;2023-03-23T00:14:06;19.20;;;8.63;;
6203;SDS011;3135;42.602;23.468;2023-03-23T00:16:37;12.18;;;6.65;;
6203;SDS011;3135;42.602;23.468;2023-03-23T00:19:06;11.65;;;6.53;;
6203;SDS011;3135;42.602;23.468;2023-03-23T00:21:37;11.98;;;6.32;;
6203;SDS011;3135;42.602;23.468;2023-03-23T00:24:12;10.57;;;6.00;;
6203;SDS011;3135;42.602;23.468;2023-03-23T00:26:41;13.70;;;6.20;;
6203;SDS011;3135;42.602;23.468;2023-03-23T00:29:11;13.73;;;6.55;;
6203;SDS011;3135;42.602;23.468;2023-03-23T00:31:40;12.93;;;6.13;;
6203;SDS011;3135;42.602;23.468;2023-03-23T00:34:11;15.57;;;7.03;;
6203;SDS011;3135;42.602;23.468;2023-03-23T00:36:38;25.15;;;11.00;;
6203;SDS011;3135;42.602;23.468;2023-03-23T00:39:07;27.88;;;11.85;;
6203;SDS011;3135;42.602;23.468;2023-03-23T00:41:33;18.83;;;9.50;;
6203;SDS011;3135;42.602;23.468;2023-03-23T00:44:01;20.17;;;9.85;;
6203;SDS011;3135;42.602;23.468;2023-03-23T00:46:27;21.23;;;9.03;;
6203;SDS011;3135;42.602;23.468;2023-03-23T00:48:53;21.88;;;10.00;;
6203;SDS011;3135;42.602;23.468;2023-03-23T00:51:20;18.35;;;8.98;;
6203;SDS011;3135;42.602;23.468;2023-03-23T00:53:46;21.48;;;10.70;;
6203;SDS011;3135;42.602;23.468;2023-03-23T00:56:12;19.80;;;10.02;;
6203;SDS011;3135;42.602;23.468;2023-03-23T00:58:38;17.98;;;8.60;;
6203;SDS011;3135;42.602;23.468;2023-03-23T01:01:04;18.40;;;8.57;;
6203;SDS011;3135;42.602;23.468;2023-03-23T01:03:30;18.30;;;9.38;;
6203;SDS011;3135;42.602;23.468;2023-03-23T01:05:56;18.08;;;9.77;;
6203;SDS011;3135;42.602;23.468;2023-03-23T01:08:22;20.23;;;9.23;;
6203;SDS011;3135;42.602;23.468;2023-03-23T01:10:48;21.48;;;10.15;;
6203;SDS011;3135;42.602;23.468;2023-03-23T01:13:15;20.67;;;10.27;;
6203;SDS011;3135;42.602;23.468;2023-03-23T01:15:41;20.03;;;9.47;;
6203;SDS011;3135;42.602;23.468;2023-03-23T01:18:07;19.63;;;8.85;;
6203;SDS011;3135;42.602;23.468;2023-03-23T01:20:34;19.02;;;9.35;;
6203;SDS011;3135;42.602;23.468;2023-03-23T01:23:01;17.67;;;8.93;;
6203;SDS011;3135;42.602;23.468;2023-03-23T01:25:27;17.27;;;9.10;;
6203;SDS011;3135;42.602;23.468;2023-03-23T01:27:54;21.10;;;9.10;;
6203;SDS011;3135;42.602;23.468;2023-03-23T01:30:20;20.02;;;9.57;;
6203;SDS011;3135;42.602;23.468;2023-03-23T01:32:45;20.30;;;9.97;;
6203;SDS011;3135;42.602;23.468;2023-03-23T01:35:14;24.83;;;11.40;;
6203;SDS011;3135;42.602;23.468;2023-03-23T01:37:41;22.55;;;10.73;;
6203;SDS011;3135;42.602;23.468;2023-03-23T01:40:07;23.87;;;11.33;;
6203;SDS011;3135;42.602;23.468;2023-03-23T01:42:35;26.13;;;10.80;;
6203;SDS011;3135;42.602;23.468;2023-03-23T01:47:51;24.35;;;12.10;;
6203;SDS011;3135;42.602;23.468;2023-03-23T01:50:18;20.30;;;9.63;;
6203;SDS011;3135;42.602;23.468;2023-03-23T01:52:48;18.92;;;9.02;;
6203;SDS011;3135;42.602;23.468;2023-03-23T01:55:14;17.35;;;7.65;;
6203;SDS011;3135;42.602;23.468;2023-03-23T01:57:40;18.95;;;8.73;;
6203;SDS011;3135;42.602;23.468;2023-03-23T02:00:07;17.75;;;7.97;;
6203;SDS011;3135;42.602;23.468;2023-03-23T02:02:39;17.13;;;7.55;;
6203;SDS011;3135;42.602;23.468;2023-03-23T02:05:12;13.70;;;7.03;;
6203;SDS011;3135;42.602;23.468;2023-03-23T02:07:44;16.05;;;8.35;;
6203;SDS011;3135;42.602;23.468;2023-03-23T02:10:11;15.40;;;7.60;;
6203;SDS011;3135;42.602;23.468;2023-03-23T02:12:37;16.30;;;7.97;;
6203;SDS011;3135;42.602;23.468;2023-03-23T02:15:02;18.57;;;7.90;;
6203;SDS011;3135;42.602;23.468;2023-03-23T02:17:51;15.85;;;7.80;;
6203;SDS011;3135;42.602;23.468;2023-03-23T02:26:11;14.38;;;7.10;;
6203;SDS011;3135;42.602;23.468;2023-03-23T02:31:54;12.57;;;6.32;;
6203;SDS011;3135;42.602;23.468;2023-03-23T02:35:00;10.98;;;6.00;;
6203;SDS011;3135;42.602;23.468;2023-03-23T02:37:34;12.93;;;6.20;;
6203;SDS011;3135;42.602;23.468;2023-03-23T02:42:36;13.90;;;6.45;;
6203;SDS011;3135;42.602;23.468;2023-03-23T02:45:05;11.53;;;5.87;;
6203;SDS011;3135;42.602;23.468;2023-03-23T02:47:33;12.90;;;6.15;;
6203;SDS011;3135;42.602;23.468;2023-03-23T02:50:02;11.15;;;5.63;;
6203;SDS011;3135;42.602;23.468;2023-03-23T02:52:30;12.55;;;6.57;;
6203;SDS011;3135;42.602;23.468;2023-03-23T02:54:58;24.63;;;10.77;;
6203;SDS011;3135;42.602;23.468;2023-03-23T02:57:25;17.23;;;8.75;;
6203;SDS011;3135;42.602;23.468;2023-03-23T02:59:52;21.95;;;9.98;;
6203;SDS011;3135;42.602;23.468;2023-03-23T03:02:19;21.33;;;10.40;;
6203;SDS011;3135;42.602;23.468;2023-03-23T03:04:52;17.23;;;8.38;;
6203;SDS011;3135;42.602;23.468;2023-03-23T03:12:31;10.93;;;5.80;;
6203;SDS011;3135;42.602;23.468;2023-03-23T03:17:51;14.70;;;6.43;;
6203;SDS011;3135;42.602;23.468;2023-03-23T03:20:33;11.25;;;6.00;;
6203;SDS011;3135;42.602;23.468;2023-03-23T03:23:03;11.93;;;5.85;;
6203;SDS011;3135;42.602;23.468;2023-03-23T03:25:29;10.30;;;5.60;;
6203;SDS011;3135;42.602;23.468;2023-03-23T03:27:56;13.95;;;6.40;;
6203;SDS011;3135;42.602;23.468;2023-03-23T03:30:23;12.43;;;5.90;;
6203;SDS011;3135;42.602;23.468;2023-03-23T03:32:56;10.05;;;5.85;;
6203;SDS011;3135;42.602;23.468;2023-03-23T03:35:25;12.45;;;5.80;;
6203;SDS011;3135;42.602;23.468;2023-03-23T03:37:51;13.90;;;6.28;;
6203;SDS011;3135;42.602;23.468;2023-03-23T03:40:19;13.20;;;6.32;;
6203;SDS011;3135;42.602;23.468;2023-03-23T03:42:46;20.95;;;9.30;;
6203;SDS011;3135;42.602;23.468;2023-03-23T03:45:13;23.75;;;11.10;;
6203;SDS011;3135;42.602;23.468;2023-03-23T03:47:43;60.20;;;26.17;;
6203;SDS011;3135;42.602;23.468;2023-03-23T03:50:09;32.70;;;12.55;;
6203;SDS011;3135;42.602;23.468;2023-03-23T03:52:36;14.02;;;7.22;;
6203;SDS011;3135;42.602;23.468;2023-03-23T03:55:05;12.67;;;6.17;;
6203;SDS011;3135;42.602;23.468;2023-03-23T03:57:32;13.80;;;6.60;;
6203;SDS011;3135;42.602;23.468;2023-03-23T03:59:58;16.50;;;9.30;;
6203;SDS011;3135;42.602;23.468;2023-03-23T04:02:23;15.07;;;8.00;;
6203;SDS011;3135;42.602;23.468;2023-03-23T04:04:49;12.57;;;7.05;;
6203;SDS011;3135;42.602;23.468;2023-03-23T04:07:16;16.60;;;7.65;;
6203;SDS011;3135;42.602;23.468;2023-03-23T04:09:45;13.70;;;7.03;;
6203;SDS011;3135;42.602;23.468;2023-03-23T04:12:13;13.20;;;7.40;;
6203;SDS011;3135;42.602;23.468;2023-03-23T04:14:38;11.48;;;6.30;;
6203;SDS011;3135;42.602;23.468;2023-03-23T04:17:04;12.25;;;6.63;;
6203;SDS011;3135;42.602;23.468;2023-03-23T04:19:29;13.40;;;6.85;;
6203;SDS011;3135;42.602;23.468;2023-03-23T04:21:57;18.65;;;8.45;;
6203;SDS011;3135;42.602;23.468;2023-03-23T04:24:23;15.10;;;7.60;;
6203;SDS011;3135;42.602;23.468;2023-03-23T04:26:49;16.13;;;7.80;;
6203;SDS011;3135;42.602;23.468;2023-03-23T04:29:17;16.42;;;8.30;;
6203;SDS011;3135;42.602;23.468;2023-03-23T04:31:43;18.75;;;9.27;;
6203;SDS011;3135;42.602;23.468;2023-03-23T04:34:10;19.77;;;9.83;;
6203;SDS011;3135;42.602;23.468;2023-03-23T04:36:38;17.65;;;9.20;;
6203;SDS011;3135;42.602;23.468;2023-03-23T04:39:04;14.23;;;7.45;;
6203;SDS011;3135;42.602;23.468;2023-03-23T04:41:32;16.33;;;8.23;;
6203;SDS011;3135;42.602;23.468;2023-03-23T04:43:57;15.57;;;8.30;;
6203;SDS011;3135;42.602;23.468;2023-03-23T04:46:27;16.10;;;7.78;;
6203;SDS011;3135;42.602;23.468;2023-03-23T04:48:56;13.68;;;7.07;;
6203;SDS011;3135;42.602;23.468;2023-03-23T04:51:26;11.68;;;6.32;;
6203;SDS011;3135;42.602;23.468;2023-03-23T04:53:53;14.13;;;6.80;;
6203;SDS011;3135;42.602;23.468;2023-03-23T04:56:19;12.55;;;6.03;;
6203;SDS011;3135;42.602;23.468;2023-03-23T04:58:45;30.00;;;12.43;;
6203;SDS011;3135;42.602;23.468;2023-03-23T05:01:11;184.82;;;45.05;;
6203;SDS011;3135;42.602;23.468;2023-03-23T05:03:42;55.08;;;18.75;;
6203;SDS011;3135;42.602;23.468;2023-03-23T05:06:08;37.33;;;14.63;;
6203;SDS011;3135;42.602;23.468;2023-03-23T05:08:35;23.48;;;10.70;;
6203;SDS011;3135;42.602;23.468;2023-03-23T05:11:04;24.13;;;10.10;;
6203;SDS011;3135;42.602;23.468;2023-03-23T05:13:30;114.35;;;35.50;;
6203;SDS011;3135;42.602;23.468;2023-03-23T05:15:56;92.88;;;29.00;;
6203;SDS011;3135;42.602;23.468;2023-03-23T05:18:21;37.70;;;14.83;;
6203;SDS011;3135;42.602;23.468;2023-03-23T05:20:47;33.90;;;15.00;;
6203;SDS011;3135;42.602;23.468;2023-03-23T05:23:13;28.65;;;12.45;;
6203;SDS011;3135;42.602;23.468;2023-03-23T05:25:39;23.20;;;9.57;;
6203;SDS011;3135;42.602;23.468;2023-03-23T05:28:09;20.83;;;10.05;;
6203;SDS011;3135;42.602;23.468;2023-03-23T05:30:35;18.83;;;9.88;;
6203;SDS011;3135;42.602;23.468;2023-03-23T05:33:01;18.13;;;9.10;;
6203;SDS011;3135;42.602;23.468;2023-03-23T05:35:28;21.20;;;10.63;;
6203;SDS011;3135;42.602;23.468;2023-03-23T05:37:53;14.50;;;7.80;;
6203;SDS011;3135;42.602;23.468;2023-03-23T05:40:20;17.65;;;8.52;;
6203;SDS011;3135;42.602;23.468;2023-03-23T05:42:47;15.63;;;7.77;;
6203;SDS011;3135;42.602;23.468;2023-03-23T05:45:13;19.50;;;9.57;;
6203;SDS011;3135;42.602;23.468;2023-03-23T05:47:39;31.63;;;14.68;;
6203;SDS011;3135;42.602;23.468;2023-03-23T05:50:06;33.67;;;15.40;;
6203;SDS011;3135;42.602;23.468;2023-03-23T05:52:37;31.70;;;14.90;;
6203;SDS011;3135;42.602;23.468;2023-03-23T05:55:03;27.98;;;13.73;;
6203;SDS011;3135;42.602;23.468;2023-03-23T05:57:30;39.15;;;18.05;;
6203;SDS011;3135;42.602;23.468;2023-03-23T05:59:56;41.75;;;18.90;;
6203;SDS011;3135;42.602;23.468;2023-03-23T06:02:22;30.83;;;15.15;;
6203;SDS011;3135;42.602;23.468;2023-03-23T06:04:49;36.67;;;17.67;;
6203;SDS011;3135;42.602;23.468;2023-03-23T06:07:15;38.03;;;19.95;;
6203;SDS011;3135;42.602;23.468;2023-03-23T06:09:41;60.08;;;23.38;;
6203;SDS011;3135;42.602;23.468;2023-03-23T06:12:07;46.08;;;19.05;;
6203;SDS011;3135;42.602;23.468;2023-03-23T06:14:34;43.35;;;19.08;;
6203;SDS011;3135;42.602;23.468;2023-03-23T06:17:00;49.10;;;22.17;;
6203;SDS011;3135;42.602;23.468;2023-03-23T06:19:26;49.80;;;21.85;;
6203;SDS011;3135;42.602;23.468;2023-03-23T06:21:56;45.92;;;20.65;;
6203;SDS011;3135;42.602;23.468;2023-03-23T06:24:22;50.38;;;23.05;;
6203;SDS011;3135;42.602;23.468;2023-03-23T06:26:47;52.83;;;23.10;;
6203;SDS011;3135;42.602;23.468;2023-03-23T06:29:14;46.75;;;21.25;;
6203;SDS011;3135;42.602;23.468;2023-03-23T06:31:40;46.33;;;20.73;;
6203;SDS011;3135;42.602;23.468;2023-03-23T06:34:08;41.05;;;18.77;;
6203;SDS011;3135;42.602;23.468;2023-03-23T06:36:35;43.90;;;19.73;;
6203;SDS011;3135;42.602;23.468;2023-03-23T06:39:01;46.05;;;21.95;;
6203;SDS011;3135;42.602;23.468;2023-03-23T06:41:29;52.83;;;23.65;;
6203;SDS011;3135;42.602;23.468;2023-03-23T06:43:55;51.17;;;21.60;;
6203;SDS011;3135;42.602;23.468;2023-03-23T06:46:20;45.50;;;20.00;;
6203;SDS011;3135;42.602;23.468;2023-03-23T06:48:45;55.97;;;23.83;;
6203;SDS011;3135;42.602;23.468;2023-03-23T06:51:14;45.00;;;19.87;;
6203;SDS011;3135;42.602;23.468;2023-03-23T06:53:40;51.38;;;22.48;;
6203;SDS011;3135;42.602;23.468;2023-03-23T06:56:05;51.13;;;20.65;;
6203;SDS011;3135;42.602;23.468;2023-03-23T06:58:32;60.08;;;23.98;;
6203;SDS011;3135;42.602;23.468;2023-03-23T07:00:57;58.10;;;25.02;;
6203;SDS011;3135;42.602;23.468;2023-03-23T07:03:23;62.33;;;24.88;;
6203;SDS011;3135;42.602;23.468;2023-03-23T07:05:49;64.35;;;25.33;;
6203;SDS011;3135;42.602;23.468;2023-03-23T07:08:15;58.92;;;23.55;;
6203;SDS011;3135;42.602;23.468;2023-03-23T07:10:40;66.37;;;25.40;;
6203;SDS011;3135;42.602;23.468;2023-03-23T07:13:06;63.03;;;25.33;;
6203;SDS011;3135;42.602;23.468;2023-03-23T07:15:31;66.40;;;25.40;;
6203;SDS011;3135;42.602;23.468;2023-03-23T07:17:57;66.55;;;26.42;;
6203;SDS011;3135;42.602;23.468;2023-03-23T07:20:23;82.90;;;31.55;;
6203;SDS011;3135;42.602;23.468;2023-03-23T07:22:48;81.38;;;29.50;;
6203;SDS011;3135;42.602;23.468;2023-03-23T07:25:15;77.60;;;28.17;;
6203;SDS011;3135;42.602;23.468;2023-03-23T07:27:41;76.38;;;27.63;;
6203;SDS011;3135;42.602;23.468;2023-03-23T07:30:06;78.63;;;29.47;;
6203;SDS011;3135;42.602;23.468;2023-03-23T07:32:32;90.22;;;32.35;;
6203;SDS011;3135;42.602;23.468;2023-03-23T07:34:58;74.77;;;28.17;;
6203;SDS011;3135;42.602;23.468;2023-03-23T07:37:23;73.87;;;27.60;;
6203;SDS011;3135;42.602;23.468;2023-03-23T07:39:49;70.87;;;27.93;;
6203;SDS011;3135;42.602;23.468;2023-03-23T07:42:15;56.07;;;23.40;;
6203;SDS011;3135;42.602;23.468;2023-03-23T07:44:40;53.40;;;23.13;;
6203;SDS011;3135;42.602;23.468;2023-03-23T07:47:06;27.80;;;12.80;;
6203;SDS011;3135;42.602;23.468;2023-03-23T07:49:32;17.52;;;8.65;;
6203;SDS011;3135;42.602;23.468;2023-03-23T07:51:57;12.37;;;6.63;;
6203;SDS011;3135;42.602;23.468;2023-03-23T07:54:23;14.17;;;7.73;;
6203;SDS011;3135;42.602;23.468;2023-03-23T07:56:49;30.73;;;13.27;;
6203;SDS011;3135;42.602;23.468;2023-03-23T07:59:15;20.45;;;9.35;;
6203;SDS011;3135;42.602;23.468;2023-03-23T08:01:41;18.03;;;9.33;;
6203;SDS011;3135;42.602;23.468;2023-03-23T08:04:06;18.57;;;9.10;;
6203;SDS011;3135;42.602;23.468;2023-03-23T08:06:33;19.38;;;9.45;;
6203;SDS011;3135;42.602;23.468;2023-03-23T08:08:59;18.05;;;9.18;;
6203;SDS011;3135;42.602;23.468;2023-03-23T08:11:25;17.58;;;9.23;;
6203;SDS011;3135;42.602;23.468;2023-03-23T08:13:51;17.48;;;9.70;;
6203;SDS011;3135;42.602;23.468;2023-03-23T08:16:18;19.88;;;9.65;;
6203;SDS011;3135;42.602;23.468;2023-03-23T08:18:45;21.10;;;9.77;;
6203;SDS011;3135;42.602;23.468;2023-03-23T08:21:11;30.33;;;13.37;;
6203;SDS011;3135;42.602;23.468;2023-03-23T08:23:36;23.52;;;10.68;;
6203;SDS011;3135;42.602;23.468;2023-03-23T08:26:03;19.80;;;9.82;;
6203;SDS011;3135;42.602;23.468;2023-03-23T08:28:33;19.02;;;9.18;;
6203;SDS011;3135;42.602;23.468;2023-03-23T08:30:59;18.73;;;8.93;;
6203;SDS011;3135;42.602;23.468;2023-03-23T08:33:24;23.45;;;11.25;;
6203;SDS011;3135;42.602;23.468;2023-03-23T08:35:59;23.27;;;11.10;;
6203;SDS011;3135;42.602;23.468;2023-03-23T08:38:26;22.88;;;11.32;;
6203;SDS011;3135;42.602;23.468;2023-03-23T08:40:56;22.23;;;11.65;;
6203;SDS011;3135;42.602;23.468;2023-03-23T08:43:23;19.73;;;9.93;;
6203;SDS011;3135;42.602;23.468;2023-03-23T08:45:49;19.33;;;9.67;;
6203;SDS011;3135;42.602;23.468;2023-03-23T08:48:16;12.40;;;7.78;;
6203;SDS011;3135;42.602;23.468;2023-03-23T08:50:43;23.27;;;11.15;;
6203;SDS011;3135;42.602;23.468;2023-03-23T08:53:08;20.70;;;10.95;;
6203;SDS011;3135;42.602;23.468;2023-03-23T08:55:34;17.33;;;9.40;;
6203;SDS011;3135;42.602;23.468;2023-03-23T08:57:59;20.93;;;10.43;;
6203;SDS011;3135;42.602;23.468;2023-03-23T09:00:25;17.17;;;8.15;;
6203;SDS011;3135;42.602;23.468;2023-03-23T09:02:53;17.95;;;8.43;;
6203;SDS011;3135;42.602;23.468;2023-03-23T09:05:20;18.65;;;9.00;;
6203;SDS011;3135;42.602;23.468;2023-03-23T09:07:49;14.33;;;7.43;;
6203;SDS011;3135;42.602;23.468;2023-03-23T09:10:16;10.20;;;5.97;;
6203;SDS011;3135;42.602;23.468;2023-03-23T09:12:43;9.43;;;5.65;;
6203;SDS011;3135;42.602;23.468;2023-03-23T09:15:10;18.25;;;8.10;;
6203;SDS011;3135;42.602;23.468;2023-03-23T09:17:39;17.48;;;8.68;;
6203;SDS011;3135;42.602;23.468;2023-03-23T09:20:07;16.35;;;7.30;;
6203;SDS011;3135;42.602;23.468;2023-03-23T09:22:47;9.65;;;5.38;;
6203;SDS011;3135;42.602;23.468;2023-03-23T09:25:16;9.73;;;5.70;;
6203;SDS011;3135;42.602;23.468;2023-03-23T09:27:46;7.88;;;5.35;;
6203;SDS011;3135;42.602;23.468;2023-03-23T09:30:16;9.07;;;5.50;;
6203;SDS011;3135;42.602;23.468;2023-03-23T09:32:44;11.10;;;6.30;;
6203;SDS011;3135;42.602;23.468;2023-03-23T09:35:10;12.13;;;5.63;;
6203;SDS011;3135;42.602;23.468;2023-03-23T09:37:39;10.43;;;5.30;;
6203;SDS011;3135;42.602;23.468;2023-03-23T09:40:06;12.13;;;6.68;;
6203;SDS011;3135;42.602;23.468;2023-03-23T09:46:03;10.90;;;5.90;;
6203;SDS011;3135;42.602;23.468;2023-03-23T09:48:41;9.10;;;5.77;;
6203;SDS011;3135;42.602;23.468;2023-03-23T09:54:25;11.15;;;5.85;;
6203;SDS011;3135;42.602;23.468;2023-03-23T09:56:54;8.65;;;5.50;;
6203;SDS011;3135;42.602;23.468;2023-03-23T10:04:49;8.52;;;5.30;;
6203;SDS011;3135;42.602;23.468;2023-03-23T10:07:20;9.55;;;5.45;;
6203;SDS011;3135;42.602;23.468;2023-03-23T10:09:49;9.48;;;5.97;;
6203;SDS011;3135;42.602;23.468;2023-03-23T10:17:59;8.70;;;5.40;;
6203;SDS011;3135;42.602;23.468;2023-03-23T10:20:30;9.00;;;5.75;;
6203;SDS011;3135;42.602;23.468;2023-03-23T10:29:21;7.43;;;4.72;;
6203;SDS011;3135;42.602;23.468;2023-03-23T10:34:40;10.48;;;5.78;;
6203;SDS011;3135;42.602;23.468;2023-03-23T10:37:29;11.82;;;6.45;;
6203;SDS011;3135;42.602;23.468;2023-03-23T10:39:59;8.10;;;5.25;;
6203;SDS011;3135;42.602;23.468;2023-03-23T10:42:29;9.65;;;5.07;;
6203;SDS011;3135;42.602;23.468;2023-03-23T10:44:57;8.00;;;4.90;;
6203;SDS011;3135;42.602;23.468;2023-03-23T10:47:25;8.65;;;5.07;;
6203;SDS011;3135;42.602;23.468;2023-03-23T10:49:59;7.30;;;4.90;;
6203;SDS011;3135;42.602;23.468;2023-03-23T10:52:37;6.72;;;4.68;;
6203;SDS011;3135;42.602;23.468;2023-03-23T10:57:42;7.38;;;4.53;;
6203;SDS011;3135;42.602;23.468;2023-03-23T11:02:44;8.32;;;4.70;;
6203;SDS011;3135;42.602;23.468;2023-03-23T11:05:16;6.93;;;4.25;;
6203;SDS011;3135;42.602;23.468;2023-03-23T11:07:52;5.65;;;4.25;;
6203;SDS011;3135;42.602;23.468;2023-03-23T11:10:41;6.82;;;4.60;;
6203;SDS011;3135;42.602;23.468;2023-03-23T11:13:12;6.78;;;4.50;;
6203;SDS011;3135;42.602;23.468;2023-03-23T11:15:40;7.80;;;5.60;;
6203;SDS011;3135;42.602;23.468;2023-03-23T11:18:20;5.97;;;4.80;;
6203;SDS011;3135;42.602;23.468;2023-03-23T11:21:01;6.63;;;5.00;;
6203;SDS011;3135;42.602;23.468;2023-03-23T11:23:32;6.97;;;4.72;;
6203;SDS011;3135;42.602;23.468;2023-03-23T11:26:21;5.72;;;4.10;;
6203;SDS011;3135;42.602;23.468;2023-03-23T11:28:55;7.22;;;4.88;;
6203;SDS011;3135;42.602;23.468;2023-03-23T11:31:30;8.13;;;4.90;;
6203;SDS011;3135;42.602;23.468;2023-03-23T11:34:04;7.97;;;4.95;;
6203;SDS011;3135;42.602;23.468;2023-03-23T11:36:35;10.13;;;5.72;;
6203;SDS011;3135;42.602;23.468;2023-03-23T11:39:03;8.73;;;5.50;;
6203;SDS011;3135;42.602;23.468;2023-03-23T11:41:54;7.70;;;5.28;;
6203;SDS011;3135;42.602;23.468;2023-03-23T11:44:22;7.45;;;4.97;;
6203;SDS011;3135;42.602;23.468;2023-03-23T11:46:55;8.05;;;4.65;;
6203;SDS011;3135;42.602;23.468;2023-03-23T11:52:13;7.95;;;4.88;;
6203;SDS011;3135;42.602;23.468;2023-03-23T11:55:03;7.80;;;4.88;;
6203;SDS011;3135;42.602;23.468;2023-03-23T11:57:35;9.77;;;5.30;;
6203;SDS011;3135;42.602;23.468;2023-03-23T12:00:05;6.80;;;4.73;;
6203;SDS011;3135;42.602;23.468;2023-03-23T12:05:35;7.53;;;5.15;;
6203;SDS011;3135;42.602;23.468;2023-03-23T12:27:53;7.90;;;5.00;;
6203;SDS011;3135;42.602;23.468;2023-03-23T12:38:56;7.32;;;4.75;;
6203;SDS011;3135;42.602;23.468;2023-03-23T12:42:13;6.55;;;4.80;;
6203;SDS011;3135;42.602;23.468;2023-03-23T12:44:55;7.57;;;4.88;;
6203;SDS011;3135;42.602;23.468;2023-03-23T12:47:32;6.65;;;4.72;;
6203;SDS011;3135;42.602;23.468;2023-03-23T12:50:20;7.43;;;4.70;;
6203;SDS011;3135;42.602;23.468;2023-03-23T12:52:58;7.00;;;4.22;;
6203;SDS011;3135;42.602;23.468;2023-03-23T12:55:50;6.37;;;4.50;;
6203;SDS011;3135;42.602;23.468;2023-03-23T12:58:32;8.05;;;4.80;;
6203;SDS011;3135;42.602;23.468;2023-03-23T13:01:40;5.97;;;4.40;;
6203;SDS011;3135;42.602;23.468;2023-03-23T13:06:34;7.25;;;4.68;;
6203;SDS011;3135;42.602;23.468;2023-03-23T13:11:38;6.47;;;4.30;;
6203;SDS011;3135;42.602;23.468;2023-03-23T13:22:21;6.38;;;4.60;;
6203;SDS011;3135;42.602;23.468;2023-03-23T13:24:56;8.10;;;4.82;;
6203;SDS011;3135;42.602;23.468;2023-03-23T13:27:26;7.28;;;5.13;;
6203;SDS011;3135;42.602;23.468;2023-03-23T13:29:53;7.03;;;4.85;;
6203;SDS011;3135;42.602;23.468;2023-03-23T13:32:20;6.78;;;4.63;;
6203;SDS011;3135;42.602;23.468;2023-03-23T13:34:53;7.95;;;4.88;;
6203;SDS011;3135;42.602;23.468;2023-03-23T13:37:28;8.05;;;4.90;;
6203;SDS011;3135;42.602;23.468;2023-03-23T13:42:49;8.45;;;4.80;;
6203;SDS011;3135;42.602;23.468;2023-03-23T13:50:58;6.10;;;4.17;;
6203;SDS011;3135;42.602;23.468;2023-03-23T13:53:42;6.30;;;4.40;;
6203;SDS011;3135;42.602;23.468;2023-03-23T13:56:20;5.15;;;4.22;;
6203;SDS011;3135;42.602;23.468;2023-03-23T13:59:15;6.63;;;4.28;;
6203;SDS011;3135;42.602;23.468;2023-03-23T14:04:51;6.55;;;4.75;;
6203;SDS011;3135;42.602;23.468;2023-03-23T14:07:16;8.63;;;5.17;;
6203;SDS011;3135;42.602;23.468;2023-03-23T14:09:44;7.90;;;4.90;;
6203;SDS011;3135;42.602;23.468;2023-03-23T14:12:27;5.68;;;4.40;;
6203;SDS011;3135;42.602;23.468;2023-03-23T14:14:59;7.50;;;4.78;;
6203;SDS011;3135;42.602;23.468;2023-03-23T14:17:30;6.00;;;4.50;;
6203;SDS011;3135;42.602;23.468;2023-03-23T14:20:05;8.97;;;5.43;;
6203;SDS011;3135;42.602;23.468;2023-03-23T14:22:32;8.88;;;4.40;;
6203;SDS011;3135;42.602;23.468;2023-03-23T14:25:16;7.30;;;4.50;;
6203;SDS011;3135;42.602;23.468;2023-03-23T14:27:43;6.88;;;4.43;;
6203;SDS011;3135;42.602;23.468;2023-03-23T14:30:13;6.07;;;4.05;;
6203;SDS011;3135;42.602;23.468;2023-03-23T14:32:40;7.88;;;4.47;;
6203;SDS011;3135;42.602;23.468;2023-03-23T14:35:11;6.78;;;4.60;;
6203;SDS011;3135;42.602;23.468;2023-03-23T14:37:40;7.53;;;4.35;;
6203;SDS011;3135;42.602;23.468;2023-03-23T14:40:06;6.18;;;4.57;;
6203;SDS011;3135;42.602;23.468;2023-03-23T14:42:40;7.60;;;4.90;;
6203;SDS011;3135;42.602;23.468;2023-03-23T14:45:10;8.52;;;5.15;;
6203;SDS011;3135;42.602;23.468;2023-03-23T14:47:40;8.57;;;5.57;;
6203;SDS011;3135;42.602;23.468;2023-03-23T14:52:56;11.67;;;6.20;;
6203;SDS011;3135;42.602;23.468;2023-03-23T14:55:24;7.93;;;4.63;;
6203;SDS011;3135;42.602;23.468;2023-03-23T14:57:53;7.78;;;4.63;;
6203;SDS011;3135;42.602;23.468;2023-03-23T15:00:30;6.17;;;4.40;;
6203;SDS011;3135;42.602;23.468;2023-03-23T15:02:59;5.18;;;3.65;;
6203;SDS011;3135;42.602;23.468;2023-03-23T15:05:29;9.43;;;4.82;;
6203;SDS011;3135;42.602;23.468;2023-03-23T15:08:00;7.90;;;4.47;;
6203;SDS011;3135;42.602;23.468;2023-03-23T15:10:31;45.27;;;16.33;;
6203;SDS011;3135;42.602;23.468;2023-03-23T15:12:57;13.10;;;5.97;;
6203;SDS011;3135;42.602;23.468;2023-03-23T15:15:33;8.25;;;4.75;;
6203;SDS011;3135;42.602;23.468;2023-03-23T15:18:00;8.25;;;5.00;;
6203;SDS011;3135;42.602;23.468;2023-03-23T15:22:54;10.73;;;6.05;;
6203;SDS011;3135;42.602;23.468;2023-03-23T15:27:53;9.55;;;5.55;;
6203;SDS011;3135;42.602;23.468;2023-03-23T15:32:54;10.18;;;5.32;;
6203;SDS011;3135;42.602;23.468;2023-03-23T15:35:25;9.70;;;5.00;;
6203;SDS011;3135;42.602;23.468;2023-03-23T15:37:52;5.32;;;3.85;;
6203;SDS011;3135;42.602;23.468;2023-03-23T15:40:25;7.18;;;4.05;;
6203;SDS011;3135;42.602;23.468;2023-03-23T15:46:01;5.10;;;3.58;;
6203;SDS011;3135;42.602;23.468;2023-03-23T15:48:44;5.60;;;4.13;;
6203;SDS011;3135;42.602;23.468;2023-03-23T15:51:15;7.43;;;5.00;;
6203;SDS011;3135;42.602;23.468;2023-03-23T15:53:43;9.80;;;4.65;;
6203;SDS011;3135;42.602;23.468;2023-03-23T15:56:09;9.47;;;5.00;;
6203;SDS011;3135;42.602;23.468;2023-03-23T15:58:36;9.85;;;4.97;;
6203;SDS011;3135;42.602;23.468;2023-03-23T16:01:04;5.68;;;4.30;;
6203;SDS011;3135;42.602;23.468;2023-03-23T16:03:39;5.95;;;4.00;;
6203;SDS011;3135;42.602;23.468;2023-03-23T16:06:18;4.13;;;3.50;;
6203;SDS011;3135;42.602;23.468;2023-03-23T16:08:45;12.63;;;6.30;;
6203;SDS011;3135;42.602;23.468;2023-03-23T16:11:11;4.93;;;3.42;;
6203;SDS011;3135;42.602;23.468;2023-03-23T16:13:38;5.73;;;3.50;;
6203;SDS011;3135;42.602;23.468;2023-03-23T16:16:05;5.50;;;3.60;;
6203;SDS011;3135;42.602;23.468;2023-03-23T16:18:34;5.68;;;3.83;;
6203;SDS011;3135;42.602;23.468;2023-03-23T16:20:59;5.00;;;3.80;;
6203;SDS011;3135;42.602;23.468;2023-03-23T16:23:25;4.72;;;3.38;;
6203;SDS011;3135;42.602;23.468;2023-03-23T16:25:51;5.63;;;3.97;;
6203;SDS011;3135;42.602;23.468;2023-03-23T16:28:17;5.75;;;4.55;;
6203;SDS011;3135;42.602;23.468;2023-03-23T16:30:44;4.88;;;4.07;;
6203;SDS011;3135;42.602;23.468;2023-03-23T16:33:10;6.97;;;5.00;;
6203;SDS011;3135;42.602;23.468;2023-03-23T16:35:36;11.48;;;6.28;;
6203;SDS011;3135;42.602;23.468;2023-03-23T16:38:02;9.15;;;4.85;;
6203;SDS011;3135;42.602;23.468;2023-03-23T16:40:29;72.97;;;25.92;;
6203;SDS011;3135;42.602;23.468;2023-03-23T16:42:54;20.33;;;9.90;;
6203;SDS011;3135;42.602;23.468;2023-03-23T16:45:20;5.90;;;4.17;;
6203;SDS011;3135;42.602;23.468;2023-03-23T16:47:46;6.57;;;3.97;;
6203;SDS011;3135;42.602;23.468;2023-03-23T16:50:13;5.97;;;4.78;;
6203;SDS011;3135;42.602;23.468;2023-03-23T16:52:40;5.25;;;4.10;;
6203;SDS011;3135;42.602;23.468;2023-03-23T16:55:07;6.85;;;3.90;;
6203;SDS011;3135;42.602;23.468;2023-03-23T16:57:34;4.72;;;3.53;;
6203;SDS011;3135;42.602;23.468;2023-03-23T17:00:01;4.38;;;3.28;;
6203;SDS011;3135;42.602;23.468;2023-03-23T17:02:30;6.93;;;4.63;;
6203;SDS011;3135;42.602;23.468;2023-03-23T17:04:56;4.40;;;3.47;;
6203;SDS011;3135;42.602;23.468;2023-03-23T17:07:22;7.88;;;4.97;;